sensor_id;sensor_type;location;lat;lon;timestamp;temperature;humidity
69543;SHT31;56762;49.494;11.768;2023-02-25T00:01:11;3.86;86.83
69543;SHT31;56762;49.494;11.768;2023-02-25T00:03:39;3.83;86.04
69543;SHT31;56762;49.494;11.768;2023-02-25T00:06:10;3.89;85.91
69543;SHT31;56762;49.494;11.768;2023-02-25T00:08:42;3.87;86.72
69543;SHT31;56762;49.494;11.768;2023-02-25T00:11:11;3.90;87.02
69543;SHT31;56762;49.494;11.768;2023-02-25T00:13:40;3.94;86.06
69543;SHT31;56762;49.494;11.768;2023-02-25T00:16:09;3.90;86.61
69543;SHT31;56762;49.494;11.768;2023-02-25T00:18:37;3.92;87.06
69543;SHT31;56762;49.494;11.768;2023-02-25T00:21:12;3.87;86.38
69543;SHT31;56762;49.494;11.768;2023-02-25T00:23:43;3.87;86.76
69543;SHT31;56762;49.494;11.768;2023-02-25T00:26:11;3.80;86.66
69543;SHT31;56762;49.494;11.768;2023-02-25T00:28:40;3.78;87.27
69543;SHT31;56762;49.494;11.768;2023-02-25T00:31:08;3.86;86.88
69543;SHT31;56762;49.494;11.768;2023-02-25T00:33:36;3.87;86.99
69543;SHT31;56762;49.494;11.768;2023-02-25T00:36:09;3.92;86.46
69543;SHT31;56762;49.494;11.768;2023-02-25T00:38:39;3.94;86.65
69543;SHT31;56762;49.494;11.768;2023-02-25T00:41:09;3.93;87.37
69543;SHT31;56762;49.494;11.768;2023-02-25T00:43:38;3.96;86.61
69543;SHT31;56762;49.494;11.768;2023-02-25T00:46:07;3.96;86.82
69543;SHT31;56762;49.494;11.768;2023-02-25T00:48:36;3.94;86.78
69543;SHT31;56762;49.494;11.768;2023-02-25T00:51:08;3.97;86.61
69543;SHT31;56762;49.494;11.768;2023-02-25T00:53:36;4.00;86.60
69543;SHT31;56762;49.494;11.768;2023-02-25T00:56:07;3.94;86.33
69543;SHT31;56762;49.494;11.768;2023-02-25T00:58:36;3.92;86.78
69543;SHT31;56762;49.494;11.768;2023-02-25T01:01:05;3.90;86.81
69543;SHT31;56762;49.494;11.768;2023-02-25T01:03:33;3.90;86.62
69543;SHT31;56762;49.494;11.768;2023-02-25T01:06:01;3.86;85.82
69543;SHT31;56762;49.494;11.768;2023-02-25T01:08:29;3.75;85.28
69543;SHT31;56762;49.494;11.768;2023-02-25T01:10:57;3.62;86.15
69543;SHT31;56762;49.494;11.768;2023-02-25T01:13:26;3.51;84.78
69543;SHT31;56762;49.494;11.768;2023-02-25T01:15:53;3.41;85.78
69543;SHT31;56762;49.494;11.768;2023-02-25T01:18:21;3.35;85.83
69543;SHT31;56762;49.494;11.768;2023-02-25T01:20:49;3.21;86.54
69543;SHT31;56762;49.494;11.768;2023-02-25T01:23:17;3.20;86.39
69543;SHT31;56762;49.494;11.768;2023-02-25T01:25:45;3.12;86.78
69543;SHT31;56762;49.494;11.768;2023-02-25T01:28:13;3.03;87.11
69543;SHT31;56762;49.494;11.768;2023-02-25T01:30:42;3.04;86.77
69543;SHT31;56762;49.494;11.768;2023-02-25T01:33:11;3.08;87.22
69543;SHT31;56762;49.494;11.768;2023-02-25T01:35:39;3.08;86.65
69543;SHT31;56762;49.494;11.768;2023-02-25T01:38:06;3.12;86.85
69543;SHT31;56762;49.494;11.768;2023-02-25T01:40:34;3.10;85.70
69543;SHT31;56762;49.494;11.768;2023-02-25T01:43:04;3.11;86.20
69543;SHT31;56762;49.494;11.768;2023-02-25T01:45:33;3.18;86.04
69543;SHT31;56762;49.494;11.768;2023-02-25T01:48:07;3.20;86.51
69543;SHT31;56762;49.494;11.768;2023-02-25T01:50:41;3.20;85.92
69543;SHT31;56762;49.494;11.768;2023-02-25T01:53:11;3.21;86.19
69543;SHT31;56762;49.494;11.768;2023-02-25T01:55:40;3.20;86.51
69543;SHT31;56762;49.494;11.768;2023-02-25T01:58:08;3.27;86.10
69543;SHT31;56762;49.494;11.768;2023-02-25T02:00:37;3.30;86.17
69543;SHT31;56762;49.494;11.768;2023-02-25T02:03:08;3.34;85.90
69543;SHT31;56762;49.494;11.768;2023-02-25T02:06:00;3.43;86.20
69543;SHT31;56762;49.494;11.768;2023-02-25T02:08:29;3.49;85.22
69543;SHT31;56762;49.494;11.768;2023-02-25T02:10:58;3.45;84.33
69543;SHT31;56762;49.494;11.768;2023-02-25T02:13:27;3.46;85.29
69543;SHT31;56762;49.494;11.768;2023-02-25T02:16:05;3.45;85.76
69543;SHT31;56762;49.494;11.768;2023-02-25T02:18:36;3.42;85.93
69543;SHT31;56762;49.494;11.768;2023-02-25T02:21:21;3.41;85.41
69543;SHT31;56762;49.494;11.768;2023-02-25T02:27:00;3.48;85.38
69543;SHT31;56762;49.494;11.768;2023-02-25T02:32:45;3.59;83.98
69543;SHT31;56762;49.494;11.768;2023-02-25T02:35:18;3.61;84.59
69543;SHT31;56762;49.494;11.768;2023-02-25T02:37:57;3.63;84.56
69543;SHT31;56762;49.494;11.768;2023-02-25T02:40:39;3.68;84.15
69543;SHT31;56762;49.494;11.768;2023-02-25T02:43:20;3.73;82.82
69543;SHT31;56762;49.494;11.768;2023-02-25T02:45:54;3.75;82.57
69543;SHT31;56762;49.494;11.768;2023-02-25T02:48:29;3.70;82.74
69543;SHT31;56762;49.494;11.768;2023-02-25T02:51:00;3.70;82.43
69543;SHT31;56762;49.494;11.768;2023-02-25T02:53:31;3.69;82.48
69543;SHT31;56762;49.494;11.768;2023-02-25T02:56:02;3.68;81.03
69543;SHT31;56762;49.494;11.768;2023-02-25T02:58:34;3.62;81.04
69543;SHT31;56762;49.494;11.768;2023-02-25T03:01:06;3.58;82.37
69543;SHT31;56762;49.494;11.768;2023-02-25T03:03:39;3.61;80.75
69543;SHT31;56762;49.494;11.768;2023-02-25T03:06:10;3.61;80.59
69543;SHT31;56762;49.494;11.768;2023-02-25T03:08:42;3.56;81.74
69543;SHT31;56762;49.494;11.768;2023-02-25T03:11:11;3.46;80.22
69543;SHT31;56762;49.494;11.768;2023-02-25T03:13:40;3.35;81.00
69543;SHT31;56762;49.494;11.768;2023-02-25T03:16:09;3.20;81.15
69543;SHT31;56762;49.494;11.768;2023-02-25T03:18:42;3.14;81.03
69543;SHT31;56762;49.494;11.768;2023-02-25T03:21:13;3.11;81.21
69543;SHT31;56762;49.494;11.768;2023-02-25T03:23:44;3.04;81.26
69543;SHT31;56762;49.494;11.768;2023-02-25T03:26:19;2.94;81.09
69543;SHT31;56762;49.494;11.768;2023-02-25T03:28:48;2.90;81.82
69543;SHT31;56762;49.494;11.768;2023-02-25T03:31:19;2.91;81.29
69543;SHT31;56762;49.494;11.768;2023-02-25T03:33:53;2.89;81.07
69543;SHT31;56762;49.494;11.768;2023-02-25T03:36:25;2.93;80.83
69543;SHT31;56762;49.494;11.768;2023-02-25T03:38:57;2.96;80.59
69543;SHT31;56762;49.494;11.768;2023-02-25T03:41:29;2.94;81.04
69543;SHT31;56762;49.494;11.768;2023-02-25T03:44:01;2.93;80.81
69543;SHT31;56762;49.494;11.768;2023-02-25T03:46:31;2.81;82.46
69543;SHT31;56762;49.494;11.768;2023-02-25T03:49:02;2.77;82.03
69543;SHT31;56762;49.494;11.768;2023-02-25T03:51:34;2.77;82.68
69543;SHT31;56762;49.494;11.768;2023-02-25T03:54:02;2.86;82.35
69543;SHT31;56762;49.494;11.768;2023-02-25T03:56:40;2.87;82.42
69543;SHT31;56762;49.494;11.768;2023-02-25T03:59:07;2.93;82.61
69543;SHT31;56762;49.494;11.768;2023-02-25T04:01:36;3.03;82.92
69543;SHT31;56762;49.494;11.768;2023-02-25T04:04:06;3.07;82.56
69543;SHT31;56762;49.494;11.768;2023-02-25T04:06:34;3.07;82.91
69543;SHT31;56762;49.494;11.768;2023-02-25T04:09:03;3.12;82.18
69543;SHT31;56762;49.494;11.768;2023-02-25T04:11:31;3.11;82.18
69543;SHT31;56762;49.494;11.768;2023-02-25T04:13:59;3.01;83.19
69543;SHT31;56762;49.494;11.768;2023-02-25T04:16:27;2.94;82.79
69543;SHT31;56762;49.494;11.768;2023-02-25T04:18:55;2.86;82.86
69543;SHT31;56762;49.494;11.768;2023-02-25T04:21:29;2.80;83.31
69543;SHT31;56762;49.494;11.768;2023-02-25T04:23:57;2.77;83.48
69543;SHT31;56762;49.494;11.768;2023-02-25T04:26:26;2.80;83.54
69543;SHT31;56762;49.494;11.768;2023-02-25T04:28:54;2.76;83.49
69543;SHT31;56762;49.494;11.768;2023-02-25T04:31:22;2.76;83.92
69543;SHT31;56762;49.494;11.768;2023-02-25T04:33:50;2.80;84.18
69543;SHT31;56762;49.494;11.768;2023-02-25T04:36:22;2.91;83.35
69543;SHT31;56762;49.494;11.768;2023-02-25T04:38:52;2.93;83.45
69543;SHT31;56762;49.494;11.768;2023-02-25T04:41:20;2.94;82.94
69543;SHT31;56762;49.494;11.768;2023-02-25T04:43:48;3.01;83.14
69543;SHT31;56762;49.494;11.768;2023-02-25T04:46:16;3.07;83.24
69543;SHT31;56762;49.494;11.768;2023-02-25T04:48:44;3.05;82.85
69543;SHT31;56762;49.494;11.768;2023-02-25T04:51:12;3.12;83.04
69543;SHT31;56762;49.494;11.768;2023-02-25T04:53:41;3.17;82.80
69543;SHT31;56762;49.494;11.768;2023-02-25T04:56:10;3.18;82.79
69543;SHT31;56762;49.494;11.768;2023-02-25T04:58:38;3.17;82.80
69543;SHT31;56762;49.494;11.768;2023-02-25T05:01:07;3.20;82.37
69543;SHT31;56762;49.494;11.768;2023-02-25T05:03:36;3.22;82.12
69543;SHT31;56762;49.494;11.768;2023-02-25T05:06:05;3.28;82.17
69543;SHT31;56762;49.494;11.768;2023-02-25T05:08:34;3.31;81.36
69543;SHT31;56762;49.494;11.768;2023-02-25T05:11:03;3.35;83.02
69543;SHT31;56762;49.494;11.768;2023-02-25T05:13:32;3.31;81.03
69543;SHT31;56762;49.494;11.768;2023-02-25T05:16:04;3.30;81.34
69543;SHT31;56762;49.494;11.768;2023-02-25T05:18:35;3.28;81.65
69543;SHT31;56762;49.494;11.768;2023-02-25T05:21:04;3.31;81.03
69543;SHT31;56762;49.494;11.768;2023-02-25T05:23:34;3.32;81.55
69543;SHT31;56762;49.494;11.768;2023-02-25T05:26:02;3.34;81.37
69543;SHT31;56762;49.494;11.768;2023-02-25T05:28:32;3.32;81.18
69543;SHT31;56762;49.494;11.768;2023-02-25T05:31:03;3.31;82.02
69543;SHT31;56762;49.494;11.768;2023-02-25T05:33:31;3.32;81.08
69543;SHT31;56762;49.494;11.768;2023-02-25T05:35:59;3.25;81.11
69543;SHT31;56762;49.494;11.768;2023-02-25T05:38:26;3.17;81.55
69543;SHT31;56762;49.494;11.768;2023-02-25T05:40:54;3.27;82.02
69543;SHT31;56762;49.494;11.768;2023-02-25T05:43:22;3.22;82.44
69543;SHT31;56762;49.494;11.768;2023-02-25T05:45:55;3.20;83.29
69543;SHT31;56762;49.494;11.768;2023-02-25T05:48:23;3.18;83.72
69543;SHT31;56762;49.494;11.768;2023-02-25T05:50:51;3.11;83.81
69543;SHT31;56762;49.494;11.768;2023-02-25T05:53:25;3.21;83.45
69543;SHT31;56762;49.494;11.768;2023-02-25T05:55:53;3.21;83.66
69543;SHT31;56762;49.494;11.768;2023-02-25T05:58:22;3.18;83.88
69543;SHT31;56762;49.494;11.768;2023-02-25T06:00:50;3.27;84.26
69543;SHT31;56762;49.494;11.768;2023-02-25T06:03:22;3.22;84.58
69543;SHT31;56762;49.494;11.768;2023-02-25T06:05:50;3.12;84.64
69543;SHT31;56762;49.494;11.768;2023-02-25T06:08:18;3.05;85.13
69543;SHT31;56762;49.494;11.768;2023-02-25T06:10:46;3.07;84.49
69543;SHT31;56762;49.494;11.768;2023-02-25T06:13:14;3.14;85.44
69543;SHT31;56762;49.494;11.768;2023-02-25T06:15:41;3.03;85.20
69543;SHT31;56762;49.494;11.768;2023-02-25T06:18:09;3.11;84.38
69543;SHT31;56762;49.494;11.768;2023-02-25T06:20:38;3.04;84.46
69543;SHT31;56762;49.494;11.768;2023-02-25T06:23:06;3.04;84.48
69543;SHT31;56762;49.494;11.768;2023-02-25T06:25:34;3.07;84.03
69543;SHT31;56762;49.494;11.768;2023-02-25T06:28:02;3.05;84.35
69543;SHT31;56762;49.494;11.768;2023-02-25T06:30:29;3.14;84.21
69543;SHT31;56762;49.494;11.768;2023-02-25T06:32:58;3.18;84.02
69543;SHT31;56762;49.494;11.768;2023-02-25T06:35:25;3.17;84.22
69543;SHT31;56762;49.494;11.768;2023-02-25T06:37:55;3.22;83.83
69543;SHT31;56762;49.494;11.768;2023-02-25T06:40:24;3.27;83.62
69543;SHT31;56762;49.494;11.768;2023-02-25T06:42:51;3.27;83.88
69543;SHT31;56762;49.494;11.768;2023-02-25T06:45:19;3.34;83.36
69543;SHT31;56762;49.494;11.768;2023-02-25T06:47:47;3.35;83.22
69543;SHT31;56762;49.494;11.768;2023-02-25T06:50:15;3.38;83.16
69543;SHT31;56762;49.494;11.768;2023-02-25T06:52:43;3.34;83.79
69543;SHT31;56762;49.494;11.768;2023-02-25T06:55:12;3.38;82.68
69543;SHT31;56762;49.494;11.768;2023-02-25T06:57:40;3.39;82.07
69543;SHT31;56762;49.494;11.768;2023-02-25T07:00:08;3.38;82.55
69543;SHT31;56762;49.494;11.768;2023-02-25T07:02:36;3.35;82.84
69543;SHT31;56762;49.494;11.768;2023-02-25T07:05:04;3.35;82.74
69543;SHT31;56762;49.494;11.768;2023-02-25T07:07:32;3.39;82.51
69543;SHT31;56762;49.494;11.768;2023-02-25T07:10:00;3.41;81.93
69543;SHT31;56762;49.494;11.768;2023-02-25T07:12:29;3.31;82.53
69543;SHT31;56762;49.494;11.768;2023-02-25T07:14:57;3.32;82.60
69543;SHT31;56762;49.494;11.768;2023-02-25T07:17:25;3.35;82.61
69543;SHT31;56762;49.494;11.768;2023-02-25T07:19:53;3.39;82.47
69543;SHT31;56762;49.494;11.768;2023-02-25T07:22:21;3.42;82.01
69543;SHT31;56762;49.494;11.768;2023-02-25T07:24:49;3.38;81.34
69543;SHT31;56762;49.494;11.768;2023-02-25T07:27:17;3.41;82.40
69543;SHT31;56762;49.494;11.768;2023-02-25T07:29:49;3.36;81.95
69543;SHT31;56762;49.494;11.768;2023-02-25T07:32:16;3.51;81.52
69543;SHT31;56762;49.494;11.768;2023-02-25T07:34:44;3.63;81.73
69543;SHT31;56762;49.494;11.768;2023-02-25T07:37:12;3.66;80.61
69543;SHT31;56762;49.494;11.768;2023-02-25T07:39:40;3.70;81.53
69543;SHT31;56762;49.494;11.768;2023-02-25T07:42:07;3.73;81.26
69543;SHT31;56762;49.494;11.768;2023-02-25T07:44:35;3.78;81.38
69543;SHT31;56762;49.494;11.768;2023-02-25T07:47:04;3.70;81.48
69543;SHT31;56762;49.494;11.768;2023-02-25T07:49:32;3.72;81.88
69543;SHT31;56762;49.494;11.768;2023-02-25T07:52:00;3.82;80.58
69543;SHT31;56762;49.494;11.768;2023-02-25T07:54:27;3.94;80.14
69543;SHT31;56762;49.494;11.768;2023-02-25T07:56:55;3.96;80.14
69543;SHT31;56762;49.494;11.768;2023-02-25T07:59:23;3.96;80.19
69543;SHT31;56762;49.494;11.768;2023-02-25T08:01:50;3.97;80.22
69543;SHT31;56762;49.494;11.768;2023-02-25T08:04:19;4.06;79.67
69543;SHT31;56762;49.494;11.768;2023-02-25T08:06:47;4.07;79.53
69543;SHT31;56762;49.494;11.768;2023-02-25T08:09:17;4.17;79.98
69543;SHT31;56762;49.494;11.768;2023-02-25T08:11:45;4.16;79.29
69543;SHT31;56762;49.494;11.768;2023-02-25T08:14:14;4.20;78.52
69543;SHT31;56762;49.494;11.768;2023-02-25T08:16:42;4.27;77.54
69543;SHT31;56762;49.494;11.768;2023-02-25T08:19:10;4.23;78.70
69543;SHT31;56762;49.494;11.768;2023-02-25T08:21:39;4.20;78.55
69543;SHT31;56762;49.494;11.768;2023-02-25T08:24:07;4.23;79.06
69543;SHT31;56762;49.494;11.768;2023-02-25T08:26:35;4.20;78.59
69543;SHT31;56762;49.494;11.768;2023-02-25T08:29:03;4.14;79.00
69543;SHT31;56762;49.494;11.768;2023-02-25T08:31:32;4.23;78.05
69543;SHT31;56762;49.494;11.768;2023-02-25T08:34:00;4.24;78.71
69543;SHT31;56762;49.494;11.768;2023-02-25T08:36:29;4.31;77.51
69543;SHT31;56762;49.494;11.768;2023-02-25T08:38:59;4.25;77.67
69543;SHT31;56762;49.494;11.768;2023-02-25T08:41:27;4.29;77.31
69543;SHT31;56762;49.494;11.768;2023-02-25T08:43:57;4.47;77.48
69543;SHT31;56762;49.494;11.768;2023-02-25T08:46:28;4.57;76.73
69543;SHT31;56762;49.494;11.768;2023-02-25T08:48:56;4.69;76.56
69543;SHT31;56762;49.494;11.768;2023-02-25T08:51:25;4.72;76.21
69543;SHT31;56762;49.494;11.768;2023-02-25T08:54:03;4.76;76.77
69543;SHT31;56762;49.494;11.768;2023-02-25T08:56:31;4.76;76.23
69543;SHT31;56762;49.494;11.768;2023-02-25T08:59:02;4.75;75.94
69543;SHT31;56762;49.494;11.768;2023-02-25T09:01:30;4.81;76.56
69543;SHT31;56762;49.494;11.768;2023-02-25T09:04:11;4.86;76.66
69543;SHT31;56762;49.494;11.768;2023-02-25T09:06:38;4.89;76.44
69543;SHT31;56762;49.494;11.768;2023-02-25T09:09:07;4.92;75.88
69543;SHT31;56762;49.494;11.768;2023-02-25T09:11:37;4.88;75.11
69543;SHT31;56762;49.494;11.768;2023-02-25T09:14:04;4.82;75.91
69543;SHT31;56762;49.494;11.768;2023-02-25T09:16:32;4.85;75.38
69543;SHT31;56762;49.494;11.768;2023-02-25T09:19:00;4.76;74.89
69543;SHT31;56762;49.494;11.768;2023-02-25T09:21:28;4.82;75.25
69543;SHT31;56762;49.494;11.768;2023-02-25T09:23:58;4.81;75.08
69543;SHT31;56762;49.494;11.768;2023-02-25T09:26:27;4.64;75.51
69543;SHT31;56762;49.494;11.768;2023-02-25T09:28:59;4.68;76.07
69543;SHT31;56762;49.494;11.768;2023-02-25T09:31:27;4.83;75.95
69543;SHT31;56762;49.494;11.768;2023-02-25T09:33:54;4.83;75.95
69543;SHT31;56762;49.494;11.768;2023-02-25T09:36:22;4.91;75.68
69543;SHT31;56762;49.494;11.768;2023-02-25T09:38:50;5.03;74.87
69543;SHT31;56762;49.494;11.768;2023-02-25T09:41:24;5.12;75.11
69543;SHT31;56762;49.494;11.768;2023-02-25T09:44:02;5.29;74.42
69543;SHT31;56762;49.494;11.768;2023-02-25T09:46:32;5.39;73.31
69543;SHT31;56762;49.494;11.768;2023-02-25T09:49:03;5.47;72.24
69543;SHT31;56762;49.494;11.768;2023-02-25T09:51:35;5.63;72.41
69543;SHT31;56762;49.494;11.768;2023-02-25T09:54:12;5.78;72.45
69543;SHT31;56762;49.494;11.768;2023-02-25T09:56:42;5.87;71.41
69543;SHT31;56762;49.494;11.768;2023-02-25T09:59:13;5.90;71.06
69543;SHT31;56762;49.494;11.768;2023-02-25T10:01:45;5.79;71.35
69543;SHT31;56762;49.494;11.768;2023-02-25T10:04:22;5.78;71.51
69543;SHT31;56762;49.494;11.768;2023-02-25T10:06:51;5.73;70.49
69543;SHT31;56762;49.494;11.768;2023-02-25T10:09:30;5.75;70.84
69543;SHT31;56762;49.494;11.768;2023-02-25T10:12:06;5.82;71.18
69543;SHT31;56762;49.494;11.768;2023-02-25T10:15:02;5.81;70.05
69543;SHT31;56762;49.494;11.768;2023-02-25T10:17:37;5.84;70.35
69543;SHT31;56762;49.494;11.768;2023-02-25T10:20:29;5.90;70.16
69543;SHT31;56762;49.494;11.768;2023-02-25T10:23:05;5.88;70.86
69543;SHT31;56762;49.494;11.768;2023-02-25T10:25:39;5.95;71.26
69543;SHT31;56762;49.494;11.768;2023-02-25T10:28:13;5.99;71.51
69543;SHT31;56762;49.494;11.768;2023-02-25T10:30:49;6.04;69.99
69543;SHT31;56762;49.494;11.768;2023-02-25T10:33:21;6.16;70.49
69543;SHT31;56762;49.494;11.768;2023-02-25T10:35:54;6.25;69.13
69543;SHT31;56762;49.494;11.768;2023-02-25T10:38:24;6.19;68.76
69543;SHT31;56762;49.494;11.768;2023-02-25T10:40:54;6.16;70.29
69543;SHT31;56762;49.494;11.768;2023-02-25T10:43:25;6.13;69.53
69543;SHT31;56762;49.494;11.768;2023-02-25T10:46:00;6.01;70.04
69543;SHT31;56762;49.494;11.768;2023-02-25T10:48:30;5.95;69.17
69543;SHT31;56762;49.494;11.768;2023-02-25T10:51:05;5.95;69.21
69543;SHT31;56762;49.494;11.768;2023-02-25T10:53:35;5.92;70.35
69543;SHT31;56762;49.494;11.768;2023-02-25T10:56:04;5.92;69.24
69543;SHT31;56762;49.494;11.768;2023-02-25T10:58:36;5.84;68.79
69543;SHT31;56762;49.494;11.768;2023-02-25T11:01:12;5.71;69.01
69543;SHT31;56762;49.494;11.768;2023-02-25T11:03:44;5.70;70.05
69543;SHT31;56762;49.494;11.768;2023-02-25T11:06:19;5.68;68.79
69543;SHT31;56762;49.494;11.768;2023-02-25T11:08:49;5.64;68.88
69543;SHT31;56762;49.494;11.768;2023-02-25T11:11:20;5.74;69.39
69543;SHT31;56762;49.494;11.768;2023-02-25T11:14:04;5.74;68.72
69543;SHT31;56762;49.494;11.768;2023-02-25T11:16:35;5.81;69.38
69543;SHT31;56762;49.494;11.768;2023-02-25T11:19:12;5.90;70.15
69543;SHT31;56762;49.494;11.768;2023-02-25T11:21:41;5.97;69.58
69543;SHT31;56762;49.494;11.768;2023-02-25T11:24:12;5.91;69.50
69543;SHT31;56762;49.494;11.768;2023-02-25T11:26:43;6.05;68.42
69543;SHT31;56762;49.494;11.768;2023-02-25T11:29:13;6.25;69.52
69543;SHT31;56762;49.494;11.768;2023-02-25T11:31:44;6.13;68.81
69543;SHT31;56762;49.494;11.768;2023-02-25T11:34:19;6.04;68.79
69543;SHT31;56762;49.494;11.768;2023-02-25T11:36:47;6.01;68.23
69543;SHT31;56762;49.494;11.768;2023-02-25T11:39:19;5.98;68.70
69543;SHT31;56762;49.494;11.768;2023-02-25T11:41:48;5.87;69.12
69543;SHT31;56762;49.494;11.768;2023-02-25T11:44:20;5.78;69.78
69543;SHT31;56762;49.494;11.768;2023-02-25T11:46:55;5.65;70.13
69543;SHT31;56762;49.494;11.768;2023-02-25T11:49:30;5.68;70.19
69543;SHT31;56762;49.494;11.768;2023-02-25T11:52:07;5.85;69.83
69543;SHT31;56762;49.494;11.768;2023-02-25T11:54:42;6.08;69.33
69543;SHT31;56762;49.494;11.768;2023-02-25T11:57:18;6.06;67.95
69543;SHT31;56762;49.494;11.768;2023-02-25T11:59:55;6.26;67.58
69543;SHT31;56762;49.494;11.768;2023-02-25T12:02:35;6.21;68.97
69543;SHT31;56762;49.494;11.768;2023-02-25T12:05:17;6.04;70.18
69543;SHT31;56762;49.494;11.768;2023-02-25T12:07:59;5.90;73.61
69543;SHT31;56762;49.494;11.768;2023-02-25T12:10:59;5.55;74.54
69543;SHT31;56762;49.494;11.768;2023-02-25T12:14:08;5.53;75.65
69543;SHT31;56762;49.494;11.768;2023-02-25T12:17:17;5.75;77.07
69543;SHT31;56762;49.494;11.768;2023-02-25T12:26:08;5.92;75.00
69543;SHT31;56762;49.494;11.768;2023-02-25T12:29:01;5.79;75.31
69543;SHT31;56762;49.494;11.768;2023-02-25T12:31:58;5.42;77.08
69543;SHT31;56762;49.494;11.768;2023-02-25T12:34:40;4.99;77.96
69543;SHT31;56762;49.494;11.768;2023-02-25T12:37:28;4.61;79.03
69543;SHT31;56762;49.494;11.768;2023-02-25T12:40:23;4.36;80.97
69543;SHT31;56762;49.494;11.768;2023-02-25T12:43:02;4.25;83.22
69543;SHT31;56762;49.494;11.768;2023-02-25T12:45:44;4.31;81.66
69543;SHT31;56762;49.494;11.768;2023-02-25T12:48:42;4.37;82.46
69543;SHT31;56762;49.494;11.768;2023-02-25T12:51:46;4.37;82.78
69543;SHT31;56762;49.494;11.768;2023-02-25T12:54:29;4.68;82.89
69543;SHT31;56762;49.494;11.768;2023-02-25T12:57:25;4.95;81.97
69543;SHT31;56762;49.494;11.768;2023-02-25T13:00:16;5.15;80.47
69543;SHT31;56762;49.494;11.768;2023-02-25T13:03:01;5.03;80.42
69543;SHT31;56762;49.494;11.768;2023-02-25T13:09:02;4.65;82.02
69543;SHT31;56762;49.494;11.768;2023-02-25T13:11:37;4.64;84.74
69543;SHT31;56762;49.494;11.768;2023-02-25T13:14:39;4.41;83.99
69543;SHT31;56762;49.494;11.768;2023-02-25T13:17:26;4.17;81.78
69543;SHT31;56762;49.494;11.768;2023-02-25T13:20:17;3.72;82.35
69543;SHT31;56762;49.494;11.768;2023-02-25T13:22:54;3.54;82.84
69543;SHT31;56762;49.494;11.768;2023-02-25T13:25:32;3.42;83.43
69543;SHT31;56762;49.494;11.768;2023-02-25T13:28:16;3.22;83.22
69543;SHT31;56762;49.494;11.768;2023-02-25T13:30:50;2.99;83.53
69543;SHT31;56762;49.494;11.768;2023-02-25T13:33:37;2.99;83.72
69543;SHT31;56762;49.494;11.768;2023-02-25T13:36:31;2.89;84.83
69543;SHT31;56762;49.494;11.768;2023-02-25T13:39:18;2.77;84.61
69543;SHT31;56762;49.494;11.768;2023-02-25T13:42:09;2.70;85.15
69543;SHT31;56762;49.494;11.768;2023-02-25T13:47:42;2.54;86.39
69543;SHT31;56762;49.494;11.768;2023-02-25T13:50:36;2.61;86.49
69543;SHT31;56762;49.494;11.768;2023-02-25T13:53:20;2.66;86.14
69543;SHT31;56762;49.494;11.768;2023-02-25T13:56:09;2.70;86.88
69543;SHT31;56762;49.494;11.768;2023-02-25T13:58:48;2.64;87.33
69543;SHT31;56762;49.494;11.768;2023-02-25T14:01:31;2.72;87.57
69543;SHT31;56762;49.494;11.768;2023-02-25T14:04:27;2.79;87.63
69543;SHT31;56762;49.494;11.768;2023-02-25T14:07:19;2.96;86.79
69543;SHT31;56762;49.494;11.768;2023-02-25T14:09:58;2.99;86.40
69543;SHT31;56762;49.494;11.768;2023-02-25T14:12:39;3.10;85.37
69543;SHT31;56762;49.494;11.768;2023-02-25T14:15:19;3.17;84.76
69543;SHT31;56762;49.494;11.768;2023-02-25T14:18:02;3.21;84.59
69543;SHT31;56762;49.494;11.768;2023-02-25T14:20:45;3.36;84.60
69543;SHT31;56762;49.494;11.768;2023-02-25T14:23:24;3.56;84.09
69543;SHT31;56762;49.494;11.768;2023-02-25T14:26:17;3.86;85.10
69543;SHT31;56762;49.494;11.768;2023-02-25T14:29:02;4.01;84.34
69543;SHT31;56762;49.494;11.768;2023-02-25T14:31:42;4.03;80.88
69543;SHT31;56762;49.494;11.768;2023-02-25T14:34:33;4.16;82.15
69543;SHT31;56762;49.494;11.768;2023-02-25T14:37:17;4.14;82.43
69543;SHT31;56762;49.494;11.768;2023-02-25T14:40:02;4.13;83.96
69543;SHT31;56762;49.494;11.768;2023-02-25T14:42:51;4.07;81.46
69543;SHT31;56762;49.494;11.768;2023-02-25T14:45:22;3.82;82.62
69543;SHT31;56762;49.494;11.768;2023-02-25T14:47:56;3.78;84.04
69543;SHT31;56762;49.494;11.768;2023-02-25T14:50:28;3.73;83.57
69543;SHT31;56762;49.494;11.768;2023-02-25T14:53:07;3.75;82.97
69543;SHT31;56762;49.494;11.768;2023-02-25T14:55:55;3.79;83.06
69543;SHT31;56762;49.494;11.768;2023-02-25T15:02:00;3.62;82.91
69543;SHT31;56762;49.494;11.768;2023-02-25T15:04:54;3.52;84.04
69543;SHT31;56762;49.494;11.768;2023-02-25T15:07:44;3.56;84.42
69543;SHT31;56762;49.494;11.768;2023-02-25T15:10:35;3.55;81.59
69543;SHT31;56762;49.494;11.768;2023-02-25T15:13:27;3.54;82.79
69543;SHT31;56762;49.494;11.768;2023-02-25T15:16:18;3.59;83.22
69543;SHT31;56762;49.494;11.768;2023-02-25T15:22:16;3.49;84.75
69543;SHT31;56762;49.494;11.768;2023-02-25T15:24:44;3.38;83.01
69543;SHT31;56762;49.494;11.768;2023-02-25T15:27:46;3.28;82.32
69543;SHT31;56762;49.494;11.768;2023-02-25T15:30:19;3.17;81.91
69543;SHT31;56762;49.494;11.768;2023-02-25T15:32:56;3.11;81.88
69543;SHT31;56762;49.494;11.768;2023-02-25T15:35:55;3.01;82.75
69543;SHT31;56762;49.494;11.768;2023-02-25T15:38:44;2.90;83.62
69543;SHT31;56762;49.494;11.768;2023-02-25T15:41:44;2.87;82.75
69543;SHT31;56762;49.494;11.768;2023-02-25T15:44:38;2.80;82.17
69543;SHT31;56762;49.494;11.768;2023-02-25T15:47:21;2.80;82.90
69543;SHT31;56762;49.494;11.768;2023-02-25T15:49:50;2.76;82.08
69543;SHT31;56762;49.494;11.768;2023-02-25T15:52:50;2.83;84.35
69543;SHT31;56762;49.494;11.768;2023-02-25T15:55:29;2.91;83.57
69543;SHT31;56762;49.494;11.768;2023-02-25T15:57:58;2.90;82.96
69543;SHT31;56762;49.494;11.768;2023-02-25T16:00:56;2.83;82.44
69543;SHT31;56762;49.494;11.768;2023-02-25T16:03:38;2.80;82.01
69543;SHT31;56762;49.494;11.768;2023-02-25T16:06:11;2.77;81.94
69543;SHT31;56762;49.494;11.768;2023-02-25T16:08:48;2.84;81.90
69543;SHT31;56762;49.494;11.768;2023-02-25T16:11:25;2.83;83.25
69543;SHT31;56762;49.494;11.768;2023-02-25T16:13:55;2.80;83.87
69543;SHT31;56762;49.494;11.768;2023-02-25T16:16:27;2.77;83.85
69543;SHT31;56762;49.494;11.768;2023-02-25T16:18:57;2.73;83.42
69543;SHT31;56762;49.494;11.768;2023-02-25T16:21:30;2.60;84.58
69543;SHT31;56762;49.494;11.768;2023-02-25T16:24:07;2.54;83.69
69543;SHT31;56762;49.494;11.768;2023-02-25T16:26:43;2.45;84.75
69543;SHT31;56762;49.494;11.768;2023-02-25T16:29:23;2.36;84.56
69543;SHT31;56762;49.494;11.768;2023-02-25T16:31:55;2.29;84.74
69543;SHT31;56762;49.494;11.768;2023-02-25T16:34:30;2.33;83.91
69543;SHT31;56762;49.494;11.768;2023-02-25T16:37:06;2.19;85.10